sensor_id;sensor_type;location;lat;lon;timestamp;pressure;altitude;pressure_sealevel;temperature;humidity
26563;BME280;14217;50.986;5.826;2022-11-18T00:03:08;98945.03;;;19.40;45.17
26563;BME280;14217;50.986;5.826;2022-11-18T00:08:10;98937.06;;;19.40;45.26
26563;BME280;14217;50.986;5.826;2022-11-18T00:13:12;98946.06;;;19.37;45.33
26563;BME280;14217;50.986;5.826;2022-11-18T00:18:33;98942.34;;;19.40;45.13
26563;BME280;14217;50.986;5.826;2022-11-18T00:23:35;98938.72;;;19.41;45.12
26563;BME280;14217;50.986;5.826;2022-11-18T00:28:38;98938.34;;;19.45;45.06
26563;BME280;14217;50.986;5.826;2022-11-18T00:33:40;98943.09;;;19.42;45.26
26563;BME280;14217;50.986;5.826;2022-11-18T00:38:42;98947.66;;;19.40;45.32
26563;BME280;14217;50.986;5.826;2022-11-18T00:43:44;98951.63;;;19.45;44.98
26563;BME280;14217;50.986;5.826;2022-11-18T00:48:46;98950.44;;;19.38;45.24
26563;BME280;14217;50.986;5.826;2022-11-18T00:53:48;98964.34;;;19.42;45.03
26563;BME280;14217;50.986;5.826;2022-11-18T00:58:49;98967.00;;;19.42;45.05
26563;BME280;14217;50.986;5.826;2022-11-18T01:03:52;98978.19;;;19.45;45.00
26563;BME280;14217;50.986;5.826;2022-11-18T01:08:53;98982.19;;;19.40;45.22
26563;BME280;14217;50.986;5.826;2022-11-18T01:13:55;98991.09;;;19.27;46.25
26563;BME280;14217;50.986;5.826;2022-11-18T01:19:00;98994.13;;;19.34;46.02
26563;BME280;14217;50.986;5.826;2022-11-18T01:24:02;98998.34;;;19.37;45.69
26563;BME280;14217;50.986;5.826;2022-11-18T01:29:04;99011.50;;;19.38;45.80
26563;BME280;14217;50.986;5.826;2022-11-18T01:34:06;99012.25;;;19.40;45.56
26563;BME280;14217;50.986;5.826;2022-11-18T01:39:08;99020.22;;;19.40;45.70
26563;BME280;14217;50.986;5.826;2022-11-18T01:49:50;99027.34;;;19.40;45.76
26563;BME280;14217;50.986;5.826;2022-11-18T01:54:55;99032.75;;;19.38;45.48
26563;BME280;14217;50.986;5.826;2022-11-18T02:00:00;99042.19;;;19.42;45.59
26563;BME280;14217;50.986;5.826;2022-11-18T02:05:06;99035.53;;;19.37;45.61
26563;BME280;14217;50.986;5.826;2022-11-18T02:10:16;99046.41;;;19.34;45.80
26563;BME280;14217;50.986;5.826;2022-11-18T02:15:25;99059.94;;;19.42;45.60
26563;BME280;14217;50.986;5.826;2022-11-18T02:20:35;99072.97;;;19.45;45.48
26563;BME280;14217;50.986;5.826;2022-11-18T02:36:21;99085.13;;;19.36;45.46
26563;BME280;14217;50.986;5.826;2022-11-18T02:41:29;99090.19;;;19.39;45.39
26563;BME280;14217;50.986;5.826;2022-11-18T02:46:34;99092.03;;;19.39;45.43
26563;BME280;14217;50.986;5.826;2022-11-18T02:51:39;99105.41;;;19.37;45.40
26563;BME280;14217;50.986;5.826;2022-11-18T02:56:43;99101.69;;;19.40;45.60
26563;BME280;14217;50.986;5.826;2022-11-18T03:01:46;99100.00;;;19.39;45.55
26563;BME280;14217;50.986;5.826;2022-11-18T03:06:58;99111.44;;;19.39;45.45
26563;BME280;14217;50.986;5.826;2022-11-18T03:12:29;99113.50;;;19.36;45.66
26563;BME280;14217;50.986;5.826;2022-11-18T03:28:25;99131.13;;;19.37;45.42
26563;BME280;14217;50.986;5.826;2022-11-18T03:33:33;99135.25;;;19.41;45.51
26563;BME280;14217;50.986;5.826;2022-11-18T03:38:39;99133.88;;;19.35;45.54
26563;BME280;14217;50.986;5.826;2022-11-18T03:43:51;99140.91;;;19.36;45.77
26563;BME280;14217;50.986;5.826;2022-11-18T03:48:56;99155.13;;;19.35;45.74
26563;BME280;14217;50.986;5.826;2022-11-18T03:54:08;99159.38;;;19.38;45.68
26563;BME280;14217;50.986;5.826;2022-11-18T04:00:06;99159.38;;;19.38;45.35
26563;BME280;14217;50.986;5.826;2022-11-18T04:04:49;99165.53;;;19.38;45.38
26563;BME280;14217;50.986;5.826;2022-11-18T04:09:58;99167.56;;;19.35;45.66
26563;BME280;14217;50.986;5.826;2022-11-18T04:15:03;99173.13;;;19.32;45.70
26563;BME280;14217;50.986;5.826;2022-11-18T04:20:05;99181.47;;;19.38;45.40
26563;BME280;14217;50.986;5.826;2022-11-18T04:25:07;99193.78;;;19.39;45.44
26563;BME280;14217;50.986;5.826;2022-11-18T04:30:10;99195.69;;;19.37;45.44
26563;BME280;14217;50.986;5.826;2022-11-18T04:35:13;99197.50;;;19.37;45.61
26563;BME280;14217;50.986;5.826;2022-11-18T04:40:15;99205.47;;;19.37;45.53
26563;BME280;14217;50.986;5.826;2022-11-18T04:45:17;99210.59;;;19.40;45.32
26563;BME280;14217;50.986;5.826;2022-11-18T04:50:19;99228.31;;;19.39;45.50
26563;BME280;14217;50.986;5.826;2022-11-18T04:55:21;99239.28;;;19.35;45.54
26563;BME280;14217;50.986;5.826;2022-11-18T05:00:23;99245.22;;;19.38;45.27
26563;BME280;14217;50.986;5.826;2022-11-18T05:05:25;99245.66;;;19.32;45.27
26563;BME280;14217;50.986;5.826;2022-11-18T05:10:27;99249.06;;;19.34;45.43
26563;BME280;14217;50.986;5.826;2022-11-18T05:15:29;99245.41;;;19.35;45.60
26563;BME280;14217;50.986;5.826;2022-11-18T05:20:30;99256.69;;;19.39;45.37
26563;BME280;14217;50.986;5.826;2022-11-18T05:25:37;99262.09;;;19.37;45.24
26563;BME280;14217;50.986;5.826;2022-11-18T05:30:39;99266.91;;;19.32;45.64
26563;BME280;14217;50.986;5.826;2022-11-18T05:35:41;99278.38;;;19.33;45.58
26563;BME280;14217;50.986;5.826;2022-11-18T05:40:43;99283.22;;;19.39;45.37
26563;BME280;14217;50.986;5.826;2022-11-18T05:45:48;99278.25;;;19.34;45.62
26563;BME280;14217;50.986;5.826;2022-11-18T05:50:52;99299.72;;;19.31;45.38
26563;BME280;14217;50.986;5.826;2022-11-18T05:56:28;99301.09;;;19.37;45.38
26563;BME280;14217;50.986;5.826;2022-11-18T06:01:32;99305.16;;;19.29;45.50
26563;BME280;14217;50.986;5.826;2022-11-18T06:06:36;99302.16;;;19.34;45.71
26563;BME280;14217;50.986;5.826;2022-11-18T06:11:41;99324.97;;;19.37;45.71
26563;BME280;14217;50.986;5.826;2022-11-18T06:16:49;99319.47;;;19.40;45.38
26563;BME280;14217;50.986;5.826;2022-11-18T06:21:52;99328.91;;;19.31;45.75
26563;BME280;14217;50.986;5.826;2022-11-18T06:26:55;99331.91;;;19.26;45.99
26563;BME280;14217;50.986;5.826;2022-11-18T06:31:56;99341.03;;;19.35;45.62
26563;BME280;14217;50.986;5.826;2022-11-18T06:36:58;99345.72;;;19.32;45.43
26563;BME280;14217;50.986;5.826;2022-11-18T06:42:00;99347.31;;;19.34;45.73
26563;BME280;14217;50.986;5.826;2022-11-18T06:47:02;99352.72;;;19.33;45.78
26563;BME280;14217;50.986;5.826;2022-11-18T06:52:04;99357.28;;;19.30;45.76
26563;BME280;14217;50.986;5.826;2022-11-18T06:57:06;99362.28;;;19.22;45.96
26563;BME280;14217;50.986;5.826;2022-11-18T07:02:08;99373.97;;;19.33;45.49
26563;BME280;14217;50.986;5.826;2022-11-18T07:07:10;99394.47;;;19.30;45.50
26563;BME280;14217;50.986;5.826;2022-11-18T07:12:12;99396.38;;;19.28;45.55
26563;BME280;14217;50.986;5.826;2022-11-18T07:17:14;99408.19;;;19.24;45.92
26563;BME280;14217;50.986;5.826;2022-11-18T07:22:16;99412.97;;;19.32;45.49
26563;BME280;14217;50.986;5.826;2022-11-18T07:27:18;99430.72;;;19.32;45.81
26563;BME280;14217;50.986;5.826;2022-11-18T07:32:20;99427.81;;;19.35;45.77
26563;BME280;14217;50.986;5.826;2022-11-18T07:37:22;99440.03;;;19.24;45.67
26563;BME280;14217;50.986;5.826;2022-11-18T07:42:24;99433.47;;;19.30;45.70
26563;BME280;14217;50.986;5.826;2022-11-18T07:47:26;99448.56;;;19.29;45.83
26563;BME280;14217;50.986;5.826;2022-11-18T07:52:28;99447.06;;;19.25;46.05
26563;BME280;14217;50.986;5.826;2022-11-18T07:57:30;99457.03;;;19.22;46.05
26563;BME280;14217;50.986;5.826;2022-11-18T08:02:32;99463.94;;;19.24;45.70
26563;BME280;14217;50.986;5.826;2022-11-18T08:07:34;99460.34;;;19.25;45.87
26563;BME280;14217;50.986;5.826;2022-11-18T08:12:36;99465.09;;;19.33;45.75
26563;BME280;14217;50.986;5.826;2022-11-18T08:17:38;99479.44;;;19.30;45.84
26563;BME280;14217;50.986;5.826;2022-11-18T08:22:40;99478.28;;;19.35;45.82
26563;BME280;14217;50.986;5.826;2022-11-18T08:27:42;99488.69;;;19.38;45.79
26563;BME280;14217;50.986;5.826;2022-11-18T08:32:43;99492.63;;;19.32;45.88
26563;BME280;14217;50.986;5.826;2022-11-18T08:37:45;99487.84;;;19.37;45.44
26563;BME280;14217;50.986;5.826;2022-11-18T08:42:47;99498.69;;;19.34;45.83
26563;BME280;14217;50.986;5.826;2022-11-18T08:47:49;99490.63;;;19.36;45.74
26563;BME280;14217;50.986;5.826;2022-11-18T08:52:51;99497.59;;;19.11;47.86
26563;BME280;14217;50.986;5.826;2022-11-18T08:57:53;99501.66;;;19.04;49.17
26563;BME280;14217;50.986;5.826;2022-11-18T09:02:55;99497.78;;;18.95;49.65
26563;BME280;14217;50.986;5.826;2022-11-18T09:07:57;99513.41;;;18.87;50.04
26563;BME280;14217;50.986;5.826;2022-11-18T09:12:59;99512.78;;;18.96;49.75
26563;BME280;14217;50.986;5.826;2022-11-18T09:18:21;99526.81;;;19.24;48.20
26563;BME280;14217;50.986;5.826;2022-11-18T09:23:24;99527.78;;;19.23;47.39
26563;BME280;14217;50.986;5.826;2022-11-18T09:28:26;99533.72;;;19.26;47.14
26563;BME280;14217;50.986;5.826;2022-11-18T09:33:28;99541.69;;;19.26;46.87
26563;BME280;14217;50.986;5.826;2022-11-18T09:38:30;99541.91;;;19.23;47.11
26563;BME280;14217;50.986;5.826;2022-11-18T09:43:54;99554.97;;;19.26;46.95
26563;BME280;14217;50.986;5.826;2022-11-18T09:49:06;99566.16;;;19.32;46.70
26563;BME280;14217;50.986;5.826;2022-11-18T09:54:23;99569.72;;;19.30;46.52
26563;BME280;14217;50.986;5.826;2022-11-18T09:59:29;99576.75;;;19.32;46.54
26563;BME280;14217;50.986;5.826;2022-11-18T10:04:32;99583.00;;;19.30;46.25
26563;BME280;14217;50.986;5.826;2022-11-18T10:09:39;99580.59;;;19.27;46.25
26563;BME280;14217;50.986;5.826;2022-11-18T10:25:13;99591.63;;;19.34;45.66
26563;BME280;14217;50.986;5.826;2022-11-18T10:30:18;99602.56;;;19.29;46.00
26563;BME280;14217;50.986;5.826;2022-11-18T10:40:31;99608.63;;;19.32;45.47
26563;BME280;14217;50.986;5.826;2022-11-18T10:45:34;99614.78;;;19.32;45.25
26563;BME280;14217;50.986;5.826;2022-11-18T10:50:39;99608.63;;;19.32;45.42
26563;BME280;14217;50.986;5.826;2022-11-18T10:55:59;99610.72;;;19.26;45.31
26563;BME280;14217;50.986;5.826;2022-11-18T11:01:18;99610.63;;;19.28;45.55
26563;BME280;14217;50.986;5.826;2022-11-18T11:06:33;99620.09;;;19.32;45.44
26563;BME280;14217;50.986;5.826;2022-11-18T11:12:19;99621.69;;;19.35;45.02
26563;BME280;14217;50.986;5.826;2022-11-18T11:17:07;99627.53;;;19.27;45.50
26563;BME280;14217;50.986;5.826;2022-11-18T11:22:10;99618.69;;;19.26;45.29
26563;BME280;14217;50.986;5.826;2022-11-18T11:33:05;99626.88;;;19.23;46.42
26563;BME280;14217;50.986;5.826;2022-11-18T11:38:20;99639.09;;;19.26;46.66
26563;BME280;14217;50.986;5.826;2022-11-18T11:49:09;99641.94;;;19.10;47.70
26563;BME280;14217;50.986;5.826;2022-11-18T11:54:38;99647.06;;;18.99;47.14
26563;BME280;14217;50.986;5.826;2022-11-18T12:00:08;99649.59;;;19.15;46.29
26563;BME280;14217;50.986;5.826;2022-11-18T12:26:49;99651.31;;;19.01;45.80
26563;BME280;14217;50.986;5.826;2022-11-18T12:31:52;99652.13;;;19.16;45.20
26563;BME280;14217;50.986;5.826;2022-11-18T12:38:01;99653.34;;;19.25;45.36
26563;BME280;14217;50.986;5.826;2022-11-18T12:42:46;99656.44;;;19.32;45.04
26563;BME280;14217;50.986;5.826;2022-11-18T12:53:32;99648.47;;;19.32;44.97
26563;BME280;14217;50.986;5.826;2022-11-18T12:58:36;99654.63;;;19.32;45.12
26563;BME280;14217;50.986;5.826;2022-11-18T13:03:38;99663.25;;;19.36;45.06
26563;BME280;14217;50.986;5.826;2022-11-18T13:08:40;99657.28;;;19.32;44.86
26563;BME280;14217;50.986;5.826;2022-11-18T13:13:43;99659.94;;;19.32;44.90
26563;BME280;14217;50.986;5.826;2022-11-18T13:18:50;99663.53;;;19.31;44.91
26563;BME280;14217;50.986;5.826;2022-11-18T13:23:59;99669.31;;;19.38;44.79
26563;BME280;14217;50.986;5.826;2022-11-18T13:29:25;99676.72;;;19.33;44.94
26563;BME280;14217;50.986;5.826;2022-11-18T13:34:30;99673.97;;;19.34;45.08
26563;BME280;14217;50.986;5.826;2022-11-18T13:39:32;99687.34;;;19.33;45.31
26563;BME280;14217;50.986;5.826;2022-11-18T13:44:36;99679.06;;;19.37;44.98
26563;BME280;14217;50.986;5.826;2022-11-18T13:49:53;99680.13;;;19.35;45.09
26563;BME280;14217;50.986;5.826;2022-11-18T13:54:58;99688.00;;;19.36;45.08
26563;BME280;14217;50.986;5.826;2022-11-18T14:00:04;99678.88;;;19.40;44.98
26563;BME280;14217;50.986;5.826;2022-11-18T14:05:17;99697.88;;;19.34;45.08
26563;BME280;14217;50.986;5.826;2022-11-18T14:10:48;99691.28;;;19.27;45.24
26563;BME280;14217;50.986;5.826;2022-11-18T14:15:52;99704.94;;;19.21;44.90
26563;BME280;14217;50.986;5.826;2022-11-18T14:20:54;99690.69;;;19.22;44.43
26563;BME280;14217;50.986;5.826;2022-11-18T14:25:58;99709.50;;;19.19;44.81
26563;BME280;14217;50.986;5.826;2022-11-18T14:31:22;99706.59;;;19.09;46.00
26563;BME280;14217;50.986;5.826;2022-11-18T14:36:24;99696.59;;;19.27;45.44
26563;BME280;14217;50.986;5.826;2022-11-18T14:41:28;99705.38;;;19.00;46.80
26563;BME280;14217;50.986;5.826;2022-11-18T14:46:50;99706.69;;;19.07;47.79
26563;BME280;14217;50.986;5.826;2022-11-18T14:51:54;99716.31;;;19.23;46.56
26563;BME280;14217;50.986;5.826;2022-11-18T14:57:03;99710.66;;;19.42;46.29
26563;BME280;14217;50.986;5.826;2022-11-18T15:02:15;99721.06;;;19.18;47.50
26563;BME280;14217;50.986;5.826;2022-11-18T15:07:18;99727.16;;;19.05;47.98
26563;BME280;14217;50.986;5.826;2022-11-18T15:12:24;99722.13;;;19.42;45.94
26563;BME280;14217;50.986;5.826;2022-11-18T15:17:27;99723.28;;;19.38;45.31
26563;BME280;14217;50.986;5.826;2022-11-18T15:22:29;99735.16;;;19.33;45.22
26563;BME280;14217;50.986;5.826;2022-11-18T15:27:31;99734.31;;;19.32;45.20
26563;BME280;14217;50.986;5.826;2022-11-18T15:32:33;99744.31;;;19.41;45.31
26563;BME280;14217;50.986;5.826;2022-11-18T15:37:36;99750.94;;;19.21;46.88
26563;BME280;14217;50.986;5.826;2022-11-18T15:42:38;99744.47;;;19.25;47.33
26563;BME280;14217;50.986;5.826;2022-11-18T15:47:52;99757.09;;;19.22;48.37
26563;BME280;14217;50.986;5.826;2022-11-18T15:52:54;99762.50;;;19.20;48.82
26563;BME280;14217;50.986;5.826;2022-11-18T15:57:56;99767.34;;;19.14;49.47
26563;BME280;14217;50.986;5.826;2022-11-18T16:02:58;99781.19;;;19.19;49.90
26563;BME280;14217;50.986;5.826;2022-11-18T16:08:00;99786.50;;;19.19;50.11
26563;BME280;14217;50.986;5.826;2022-11-18T16:13:02;99792.38;;;19.24;50.26
26563;BME280;14217;50.986;5.826;2022-11-18T16:18:05;99806.69;;;19.21;50.55
26563;BME280;14217;50.986;5.826;2022-11-18T16:23:07;99799.66;;;19.20;50.57
26563;BME280;14217;50.986;5.826;2022-11-18T16:28:10;99809.34;;;19.21;50.92
26563;BME280;14217;50.986;5.826;2022-11-18T16:33:13;99806.41;;;19.26;50.71
26563;BME280;14217;50.986;5.826;2022-11-18T16:38:15;99808.22;;;19.25;50.71
26563;BME280;14217;50.986;5.826;2022-11-18T16:43:17;99818.53;;;19.30;50.77
26563;BME280;14217;50.986;5.826;2022-11-18T16:48:20;99820.22;;;19.31;50.66
26563;BME280;14217;50.986;5.826;2022-11-18T16:53:22;99829.16;;;19.30;50.70
26563;BME280;14217;50.986;5.826;2022-11-18T16:58:24;99830.66;;;19.34;50.75
26563;BME280;14217;50.986;5.826;2022-11-18T17:03:26;99835.88;;;19.36;50.51
26563;BME280;14217;50.986;5.826;2022-11-18T17:08:32;99823.44;;;19.36;50.74
26563;BME280;14217;50.986;5.826;2022-11-18T17:13:35;99826.88;;;19.38;48.21
26563;BME280;14217;50.986;5.826;2022-11-18T17:18:38;99835.13;;;19.34;46.49
26563;BME280;14217;50.986;5.826;2022-11-18T17:23:40;99837.97;;;19.30;46.53
26563;BME280;14217;50.986;5.826;2022-11-18T17:28:42;99840.06;;;19.25;46.88
26563;BME280;14217;50.986;5.826;2022-11-18T17:33:45;99841.38;;;19.33;46.75
26563;BME280;14217;50.986;5.826;2022-11-18T17:38:49;99847.16;;;19.39;47.11
26563;BME280;14217;50.986;5.826;2022-11-18T17:43:52;99842.34;;;19.32;47.32
26563;BME280;14217;50.986;5.826;2022-11-18T17:48:56;99857.41;;;19.31;47.12
26563;BME280;14217;50.986;5.826;2022-11-18T17:53:58;99865.38;;;19.31;47.37
26563;BME280;14217;50.986;5.826;2022-11-18T17:59:00;99865.09;;;19.36;47.33
26563;BME280;14217;50.986;5.826;2022-11-18T18:04:02;99866.22;;;19.46;46.69
26563;BME280;14217;50.986;5.826;2022-11-18T18:09:04;99863.97;;;19.40;46.86
26563;BME280;14217;50.986;5.826;2022-11-18T18:14:08;99870.41;;;19.36;47.16
26563;BME280;14217;50.986;5.826;2022-11-18T18:19:18;99874.97;;;19.34;46.84
26563;BME280;14217;50.986;5.826;2022-11-18T18:24:20;99870.97;;;19.41;46.96
26563;BME280;14217;50.986;5.826;2022-11-18T18:29:22;99885.38;;;19.51;46.37
26563;BME280;14217;50.986;5.826;2022-11-18T18:34:26;99884.06;;;19.44;46.41
26563;BME280;14217;50.986;5.826;2022-11-18T18:39:29;99881.94;;;19.63;46.00
26563;BME280;14217;50.986;5.826;2022-11-18T18:44:31;99880.44;;;19.74;45.99
26563;BME280;14217;50.986;5.826;2022-11-18T18:49:51;99878.78;;;19.71;46.04
26563;BME280;14217;50.986;5.826;2022-11-18T18:54:53;99880.44;;;19.59;46.38
26563;BME280;14217;50.986;5.826;2022-11-18T18:59:55;99878.59;;;19.60;46.54
26563;BME280;14217;50.986;5.826;2022-11-18T19:04:57;99878.91;;;19.55;46.47
26563;BME280;14217;50.986;5.826;2022-11-18T19:10:00;99884.28;;;19.68;45.98
26563;BME280;14217;50.986;5.826;2022-11-18T19:15:03;99885.44;;;19.64;46.10
26563;BME280;14217;50.986;5.826;2022-11-18T19:20:06;99885.13;;;19.68;45.97
26563;BME280;14217;50.986;5.826;2022-11-18T19:25:27;99885.81;;;19.58;46.28
26563;BME280;14217;50.986;5.826;2022-11-18T19:30:29;99893.34;;;19.51;46.33
26563;BME280;14217;50.986;5.826;2022-11-18T19:35:30;99902.25;;;19.50;46.34
26563;BME280;14217;50.986;5.826;2022-11-18T19:40:32;99907.00;;;19.59;46.05
26563;BME280;14217;50.986;5.826;2022-11-18T19:45:35;99903.19;;;19.63;45.74
26563;BME280;14217;50.986;5.826;2022-11-18T19:50:37;99907.09;;;19.58;45.66
26563;BME280;14217;50.986;5.826;2022-11-18T19:55:39;99898.44;;;19.54;46.00
26563;BME280;14217;50.986;5.826;2022-11-18T20:00:41;99912.16;;;19.48;45.88
26563;BME280;14217;50.986;5.826;2022-11-18T20:05:43;99915.63;;;19.63;45.40
26563;BME280;14217;50.986;5.826;2022-11-18T20:10:54;99912.97;;;19.63;45.63
26563;BME280;14217;50.986;5.826;2022-11-18T20:16:05;99913.63;;;19.52;45.83
26563;BME280;14217;50.986;5.826;2022-11-18T20:21:10;99912.59;;;19.55;45.55
26563;BME280;14217;50.986;5.826;2022-11-18T20:26:14;99908.50;;;19.63;45.47
26563;BME280;14217;50.986;5.826;2022-11-18T20:31:18;99910.72;;;19.57;45.33
26563;BME280;14217;50.986;5.826;2022-11-18T20:36:23;99917.63;;;19.59;45.56
26563;BME280;14217;50.986;5.826;2022-11-18T20:41:26;99916.56;;;19.62;45.44
26563;BME280;14217;50.986;5.826;2022-11-18T20:46:30;99926.53;;;19.58;45.20
26563;BME280;14217;50.986;5.826;2022-11-18T20:51:35;99919.44;;;19.59;45.25
26563;BME280;14217;50.986;5.826;2022-11-18T20:56:37;99919.44;;;19.59;45.42
26563;BME280;14217;50.986;5.826;2022-11-18T21:01:39;99917.91;;;19.55;45.50
26563;BME280;14217;50.986;5.826;2022-11-18T21:06:41;99923.50;;;19.50;45.48
26563;BME280;14217;50.986;5.826;2022-11-18T21:11:43;99930.81;;;19.61;45.20
26563;BME280;14217;50.986;5.826;2022-11-18T21:16:45;99935.25;;;19.60;45.16
26563;BME280;14217;50.986;5.826;2022-11-18T21:21:48;99928.44;;;19.56;45.24
26563;BME280;14217;50.986;5.826;2022-11-18T21:26:53;99938.41;;;19.53;45.17
26563;BME280;14217;50.986;5.826;2022-11-18T21:31:56;99937.91;;;19.60;45.12
26563;BME280;14217;50.986;5.826;2022-11-18T21:37:00;99948.94;;;19.54;45.25
26563;BME280;14217;50.986;5.826;2022-11-18T21:42:02;99949.13;;;19.51;45.04
26563;BME280;14217;50.986;5.826;2022-11-18T21:47:04;99957.09;;;19.51;45.34
26563;BME280;14217;50.986;5.826;2022-11-18T21:52:06;99953.59;;;19.50;45.10
26563;BME280;14217;50.986;5.826;2022-11-18T21:57:09;99949.69;;;19.56;45.24
26563;BME280;14217;50.986;5.826;2022-11-18T22:02:12;99954.38;;;19.53;45.69
26563;BME280;14217;50.986;5.826;2022-11-18T22:07:14;99953.47;;;19.52;45.50
26563;BME280;14217;50.986;5.826;2022-11-18T22:12:17;99955.50;;;19.48;45.83
26563;BME280;14217;50.986;5.826;2022-11-18T22:17:18;99954.25;;;19.54;45.61
26563;BME280;14217;50.986;5.826;2022-11-18T22:22:20;99956.72;;;19.57;45.12
26563;BME280;14217;50.986;5.826;2022-11-18T22:27:22;99964.09;;;19.52;45.26
26563;BME280;14217;50.986;5.826;2022-11-18T22:32:24;99960.59;;;19.52;45.40
26563;BME280;14217;50.986;5.826;2022-11-18T22:37:26;99966.00;;;19.50;45.15
26563;BME280;14217;50.986;5.826;2022-11-18T22:42:28;99967.66;;;19.53;45.38
26563;BME280;14217;50.986;5.826;2022-11-18T22:47:48;99979.88;;;19.55;45.24
26563;BME280;14217;50.986;5.826;2022-11-18T22:52:50;99974.66;;;19.54;45.14
26563;BME280;14217;50.986;5.826;2022-11-18T22:57:52;99979.28;;;19.50;45.03
26563;BME280;14217;50.986;5.826;2022-11-18T23:02:54;99987.84;;;19.55;45.21
26563;BME280;14217;50.986;5.826;2022-11-18T23:07:56;99986.25;;;19.53;45.28
26563;BME280;14217;50.986;5.826;2022-11-18T23:12:57;99990.69;;;19.52;44.95
26563;BME280;14217;50.986;5.826;2022-11-18T23:18:18;99994.09;;;19.54;45.16
26563;BME280;14217;50.986;5.826;2022-11-18T23:23:20;100009.03;;;19.57;44.96
26563;BME280;14217;50.986;5.826;2022-11-18T23:28:22;100005.97;;;19.48;45.05
26563;BME280;14217;50.986;5.826;2022-11-18T23:33:25;100011.28;;;19.48;45.21
26563;BME280;14217;50.986;5.826;2022-11-18T23:38:27;100015.75;;;19.48;45.28
26563;BME280;14217;50.986;5.826;2022-11-18T23:43:30;100011.94;;;19.52;45.09
26563;BME280;14217;50.986;5.826;2022-11-18T23:48:34;100008.50;;;19.50;45.00
26563;BME280;14217;50.986;5.826;2022-11-18T23:53:37;100015.47;;;19.53;45.03
26563;BME280;14217;50.986;5.826;2022-11-18T23:58:40;100010.16;;;19.53;44.79
